createdAt,value
2023-02-01T00:05:14.019Z,100
2023-02-01T00:11:06.213Z,100
2023-02-01T00:16:58.867Z,100
2023-02-01T00:22:48.775Z,100
2023-02-01T00:28:39.990Z,100
2023-02-01T00:34:29.327Z,100
2023-02-01T00:40:19.972Z,100
2023-02-01T00:46:13.195Z,100
2023-02-01T00:52:05.141Z,100
2023-02-01T00:57:55.828Z,100
2023-02-01T01:03:45.176Z,100
2023-02-01T01:09:35.972Z,100
2023-02-01T01:15:29.491Z,100
2023-02-01T01:21:19.634Z,100
2023-02-01T01:27:11.352Z,97.6
2023-02-01T01:33:03.337Z,98.4
2023-02-01T01:38:52.383Z,98.2
2023-02-01T01:44:44.262Z,98.3
2023-02-01T01:50:33.896Z,97.8
2023-02-01T01:56:26.285Z,97.5
2023-02-01T02:02:17.544Z,95.9
2023-02-01T02:08:07.038Z,96.3
2023-02-01T02:13:56.463Z,94.6
2023-02-01T02:19:45.498Z,95.4
2023-02-01T02:25:34.261Z,95
2023-02-01T02:31:24.549Z,95.5
2023-02-01T02:37:14.881Z,95.3
2023-02-01T02:43:06.523Z,96
2023-02-01T02:49:03.501Z,96
2023-02-01T02:54:52.104Z,96.4
2023-02-01T03:00:40.693Z,95.8
2023-02-01T03:06:31.943Z,94.6
2023-02-01T03:12:22.415Z,94.6
2023-02-01T03:18:12.593Z,92.7
2023-02-01T03:24:02.150Z,93.5
2023-02-01T03:29:51.275Z,93.3
2023-02-01T03:35:40.017Z,93.1
2023-02-01T03:41:27.755Z,93
2023-02-01T03:47:18.388Z,92.9
2023-02-01T03:53:07.817Z,91.7
2023-02-01T03:58:56.258Z,90.4
2023-02-01T04:04:46.570Z,90.9
2023-02-01T04:10:36.130Z,90.2
2023-02-01T04:16:26.288Z,89.5
2023-02-01T04:28:01.579Z,89.9
2023-02-01T04:33:51.469Z,91.7
2023-02-01T04:39:42.880Z,90.1
2023-02-01T04:45:31.889Z,91.7
2023-02-01T04:51:22.560Z,91.7
2023-02-01T04:57:13.179Z,91.5
2023-02-01T05:03:02.760Z,90.8
2023-02-01T05:09:00.533Z,90.7
2023-02-01T05:14:50.065Z,91.3
2023-02-01T05:20:41.526Z,90.8
2023-02-01T05:26:30.975Z,90.6
2023-02-01T05:32:24.655Z,90.8
2023-02-01T05:38:14.174Z,90
2023-02-01T05:44:04.168Z,89.2
2023-02-01T05:49:54.880Z,88
2023-02-01T05:55:43.387Z,88.4
2023-02-01T06:01:32.557Z,88.2
2023-02-01T06:07:22.614Z,88.8
2023-02-01T06:13:16.263Z,88.1
2023-02-01T06:19:05.562Z,88.2
2023-02-01T06:24:55.136Z,88.5
2023-02-01T06:30:45.781Z,88.5
2023-02-01T06:36:37.766Z,88.8
2023-02-01T06:42:26.883Z,88.5
2023-02-01T06:48:18.735Z,88.8
2023-02-01T06:54:08.241Z,88.4
2023-02-01T06:59:56.419Z,88.6
2023-02-01T07:05:49.601Z,89
2023-02-01T07:11:43.479Z,88.8
2023-02-01T07:17:32.761Z,88.7
2023-02-01T07:23:26.100Z,88.4
2023-02-01T07:29:15.546Z,89.2
2023-02-01T07:35:04.470Z,90
2023-02-01T07:40:57.491Z,89.1
2023-02-01T07:46:48.904Z,89.5
2023-02-01T07:52:39.368Z,89.7
2023-02-01T07:58:28.671Z,89.8
2023-02-01T08:04:19.707Z,89.2
2023-02-01T08:10:09.036Z,89.7
2023-02-01T08:15:59.515Z,89.4
2023-02-01T08:21:52.453Z,87.5
2023-02-01T08:27:56.366Z,87.6
2023-02-01T08:33:50.321Z,88.9
2023-02-01T08:39:40.145Z,88.7
2023-02-01T08:45:35.206Z,88.4
2023-02-01T08:51:25.411Z,88.1
2023-02-01T08:57:20.289Z,87.2
2023-02-01T09:03:11.151Z,87.8
2023-02-01T09:09:00.724Z,88.2
2023-02-01T09:14:50.581Z,88
2023-02-01T09:20:41.816Z,87.3
2023-02-01T09:26:34.931Z,86.8
2023-02-01T09:32:25.667Z,87
2023-02-01T09:38:17.988Z,87.8
2023-02-01T09:44:09.405Z,86.9
2023-02-01T09:50:29.079Z,86.5
2023-02-01T09:56:18.168Z,86.5
2023-02-01T10:02:09.971Z,86.2
2023-02-01T10:08:02.651Z,85.9
2023-02-01T10:14:07.593Z,85.7
2023-02-01T10:20:01.219Z,84.9
2023-02-01T10:26:00.352Z,84.9
2023-02-01T10:31:59.410Z,84.4
2023-02-01T10:38:10.157Z,83.6
2023-02-01T10:44:24.386Z,83.8
2023-02-01T10:50:28.875Z,83.3
2023-02-01T10:56:22.904Z,82.3
2023-02-01T11:02:11.742Z,82
2023-02-01T11:08:02.443Z,80.8
2023-02-01T11:13:52.272Z,80.2
2023-02-01T11:19:46.023Z,80.3
2023-02-01T11:25:35.736Z,79.4
2023-02-01T11:31:26.227Z,79.1
2023-02-01T11:37:21.620Z,78.5
2023-02-01T11:43:13.801Z,79.2
2023-02-01T11:49:05.719Z,79.2
2023-02-01T11:54:56.273Z,78.5
2023-02-01T12:00:50.025Z,78.9
2023-02-01T12:06:53.920Z,78.7
2023-02-01T12:12:43.301Z,79.1
2023-02-01T12:18:42.140Z,78.7
2023-02-01T12:24:34.787Z,78.2
2023-02-01T12:30:26.063Z,76.8
2023-02-01T12:36:17.442Z,77.6
2023-02-01T12:42:09.146Z,76.2
2023-02-01T12:47:59.328Z,77.3
2023-02-01T12:53:49.739Z,75.6
2023-02-01T12:59:40.784Z,75
2023-02-01T13:05:32.215Z,75.5
2023-02-01T13:11:23.071Z,75.3
2023-02-01T13:17:13.651Z,74.9
2023-02-01T13:23:05.502Z,74.2
2023-02-01T13:28:59.024Z,75
2023-02-01T13:34:49.205Z,75.1
2023-02-01T13:40:59.508Z,74.4
2023-02-01T13:46:47.294Z,75.1
2023-02-01T13:52:51.272Z,74.6
2023-02-01T13:58:40.344Z,75.7
2023-02-01T14:04:29.877Z,75.9
2023-02-01T14:10:22.516Z,76.9
2023-02-01T14:16:23.574Z,76.7
2023-02-01T14:22:13.814Z,77.1
2023-02-01T14:28:04.201Z,76.8
2023-02-01T14:33:54.904Z,77.2
2023-02-01T14:39:47.764Z,77
2023-02-01T14:45:39.023Z,77.4
2023-02-01T14:51:31.380Z,77.1
2023-02-01T14:57:23.390Z,76.8
2023-02-01T15:03:15.105Z,76.5
2023-02-01T15:09:06.953Z,76.7
2023-02-01T15:15:00.139Z,76.7
2023-02-01T15:21:30.464Z,76.7
2023-02-01T15:27:24.166Z,76.4
2023-02-01T15:33:15.087Z,76.7
2023-02-01T15:39:07.893Z,76.7
2023-02-01T15:45:03.533Z,76.7
2023-02-01T15:50:54.132Z,76.8
2023-02-01T15:56:48.121Z,76.3
2023-02-01T16:02:39.052Z,77.9
2023-02-01T16:08:30.910Z,80.1
2023-02-01T16:14:21.885Z,81.9
2023-02-01T16:20:12.348Z,84
2023-02-01T16:32:49.505Z,90.4
2023-02-01T16:38:49.016Z,90.9
2023-02-01T16:44:41.528Z,92.9
2023-02-01T16:57:38.830Z,95.5
2023-02-01T17:03:27.648Z,97.6
2023-02-01T17:16:04.398Z,99.3
2023-02-01T17:22:20.670Z,100
2023-02-01T17:28:11.865Z,100
2023-02-01T17:34:02.147Z,100
2023-02-01T17:40:02.527Z,100
2023-02-01T17:45:54.492Z,100
2023-02-01T17:51:50.042Z,100
2023-02-01T17:57:48.301Z,100
2023-02-01T18:17:30.786Z,100
2023-02-01T18:23:35.093Z,100
2023-02-01T18:29:41.141Z,100
2023-02-01T18:35:40.779Z,100
2023-02-01T18:47:38.457Z,100
2023-02-01T18:53:43.714Z,100
2023-02-01T18:59:55.216Z,99.8
2023-02-01T19:06:13.297Z,98.3
2023-02-01T19:24:17.465Z,97.9
2023-02-01T19:30:12.420Z,96.8
2023-02-01T19:36:30.908Z,96.3
2023-02-01T19:42:46.124Z,95.2
2023-02-01T19:49:14.367Z,94.9
2023-02-01T19:55:06.173Z,95
2023-02-01T20:00:54.815Z,95.1
2023-02-01T20:07:01.643Z,95.5
2023-02-01T20:19:10.861Z,94.6
2023-02-01T20:25:11.631Z,94.7
2023-02-01T20:31:19.488Z,93.8
2023-02-01T20:43:42.975Z,93.8
2023-02-01T20:50:12.451Z,93.7
2023-02-01T20:56:46.907Z,93.7
2023-02-01T21:09:47.569Z,93.6
2023-02-01T21:15:49.615Z,94
2023-02-01T21:24:00.890Z,93.5
2023-02-01T21:30:10.974Z,94.2
2023-02-01T21:36:30.525Z,93.4
2023-02-01T22:15:48.183Z,94.5
2023-02-01T22:35:36.091Z,94.4
2023-02-01T22:41:40.578Z,93.8
2023-02-01T22:54:31.227Z,93.7
2023-02-01T23:07:29.717Z,93.7
2023-02-01T23:13:25.492Z,94.3
2023-02-01T23:19:33.009Z,94.4
2023-02-01T23:25:51.906Z,94.2
2023-02-01T23:31:50.537Z,93.3
2023-02-01T23:37:59.657Z,94.4
2023-02-01T23:43:56.938Z,94.7
2023-02-01T23:50:09.970Z,94.5
2023-02-01T23:56:27.239Z,94.6
